Time;durP1;ratioP1;P1;durP2;ratioP2;P2;SDS_P1;SDS_P2;PMS_P1;PMS_P2;Temp;Humidity;BMP_temperature;BMP_pressure;BME280_temperature;BME280_humidity;BME280_pressure;Samples;Min_cycle;Max_cycle;Signal;HPM_P1;HPM_P2
2022/07/23 00:01:10;;;;;;;;;;;17.50;99.90;;;;;;8389073;28;20240;-66
2022/07/23 00:05:12;;;;;;;;;;;17.50;99.90;;;;;;8391000;28;19971;-66
2022/07/23 00:09:14;;;;;;;;;;;17.40;99.90;;;;;;8384001;28;20351;-66
2022/07/23 00:13:15;;;;;;;;;;;17.40;99.90;;;;;;8385442;28;19931;-66
2022/07/23 00:17:17;;;;;;;;;;;17.30;99.90;;;;;;8386233;28;20268;-66
2022/07/23 00:21:19;;;;;;;;;;;17.30;99.90;;;;;;8379153;28;19936;-66
2022/07/23 00:25:21;;;;;;;;;;;17.20;99.90;;;;;;8384427;28;19927;-66
2022/07/23 00:29:29;;;;;;;;;;;17.20;99.90;;;;;;8376154;28;19920;-66
2022/07/23 00:33:31;;;;;;;;;;;17.20;99.90;;;;;;8388208;28;20359;-66
2022/07/23 00:37:32;;;;;;;;;;;17.10;99.90;;;;;;8372899;28;19920;-66
2022/07/23 00:41:34;;;;;;;;;;;17.10;99.90;;;;;;8392664;28;19924;-66
2022/07/23 00:50:39;;;;;;;;;;;17.10;99.90;;;;;;8377909;28;19975;-66
2022/07/23 00:54:41;;;;;;;;;;;17.00;99.90;;;;;;8387670;28;19970;-66
2022/07/23 00:58:42;;;;;;;;;;;17.00;99.90;;;;;;8386124;28;19927;-66
2022/07/23 01:02:44;;;;;;;;;;;17.00;99.90;;;;;;8387256;28;19921;-65
2022/07/23 01:06:46;;;;;;;;;;;16.90;99.90;;;;;;8385955;28;19943;-66
2022/07/23 01:10:48;;;;;;;;;;;16.90;99.90;;;;;;8369426;28;19943;-66
2022/07/23 01:14:54;;;;;;;;;;;16.90;99.90;;;;;;8384878;28;19920;-66
2022/07/23 01:18:55;;;;;;;;;;;16.90;99.90;;;;;;8383028;28;19925;-66
2022/07/23 01:22:57;;;;;;;;;;;16.80;99.90;;;;;;8392489;28;19920;-66
2022/07/23 01:26:59;;;;;;;;;;;16.80;99.90;;;;;;8389501;28;19921;-66
2022/07/23 01:31:01;;;;;;;;;;;16.80;99.90;;;;;;8392386;28;19970;-66
2022/07/23 01:35:03;;;;;;;;;;;16.80;99.90;;;;;;8382208;28;19921;-65
2022/07/23 01:39:05;;;;;;;;;;;16.70;99.90;;;;;;8378371;28;20413;-66
2022/07/23 01:43:06;;;;;;;;;;;16.70;99.90;;;;;;8379871;28;20011;-66
2022/07/23 01:47:08;;;;;;;;;;;16.60;99.90;;;;;;8390444;28;20295;-65
2022/07/23 01:51:10;;;;;;;;;;;16.60;99.90;;;;;;8382681;28;19928;-66
2022/07/23 01:55:11;;;;;;;;;;;16.50;99.90;;;;;;8389280;28;19927;-66
2022/07/23 01:59:18;;;;;;;;;;;16.50;99.90;;;;;;8393572;28;20335;-66
2022/07/23 02:03:20;;;;;;;;;;;16.40;99.90;;;;;;8364370;28;19927;-65
2022/07/23 02:07:22;;;;;;;;;;;16.40;99.90;;;;;;8380691;28;19924;-66
2022/07/23 02:11:24;;;;;;;;;;;16.30;99.90;;;;;;8387837;28;19921;-66
2022/07/23 02:15:25;;;;;;;;;;;16.30;99.90;;;;;;8368056;28;20401;-66
2022/07/23 02:19:27;;;;;;;;;;;16.20;99.90;;;;;;8359058;28;19921;-66
2022/07/23 02:23:29;;;;;;;;;;;16.20;99.90;;;;;;8380257;28;20264;-67
2022/07/23 02:27:30;;;;;;;;;;;16.10;99.90;;;;;;8391658;28;19943;-68
2022/07/23 02:31:32;;;;;;;;;;;16.10;99.90;;;;;;8392623;28;19962;-68
2022/07/23 02:35:34;;;;;;;;;;;16.00;99.90;;;;;;8384259;28;20003;-68
2022/07/23 02:39:35;;;;;;;;;;;16.00;99.90;;;;;;8381761;28;20243;-68
2022/07/23 02:43:37;;;;;;;;;;;15.90;99.90;;;;;;8379496;28;19920;-68
2022/07/23 02:47:39;;;;;;;;;;;15.90;99.90;;;;;;8395789;28;20011;-68
2022/07/23 02:51:41;;;;;;;;;;;15.80;99.90;;;;;;8391593;28;19920;-68
2022/07/23 02:55:42;;;;;;;;;;;15.80;99.90;;;;;;8385226;28;19920;-68
2022/07/23 03:09:50;;;;;;;;;;;15.70;99.90;;;;;;8387332;28;20019;-68
2022/07/23 03:13:52;;;;;;;;;;;15.60;99.90;;;;;;8391916;28;20368;-68
2022/07/23 03:17:54;;;;;;;;;;;15.60;99.90;;;;;;8394648;28;20385;-68
2022/07/23 03:21:55;;;;;;;;;;;15.50;99.90;;;;;;8393394;28;19924;-68
2022/07/23 03:25:57;;;;;;;;;;;15.50;99.90;;;;;;8386047;28;20307;-68
2022/07/23 03:29:59;;;;;;;;;;;15.50;99.90;;;;;;8392498;28;19921;-68
2022/07/23 03:34:01;;;;;;;;;;;15.40;99.90;;;;;;8389305;28;19920;-68
2022/07/23 03:38:03;;;;;;;;;;;15.40;99.90;;;;;;8383078;28;19925;-68
2022/07/23 03:52:08;;;;;;;;;;;15.30;99.90;;;;;;8371113;28;20440;-68
2022/07/23 03:56:10;;;;;;;;;;;15.20;99.90;;;;;;8381412;28;19928;-68
2022/07/23 04:00:12;;;;;;;;;;;15.10;99.90;;;;;;8385951;28;19920;-68
2022/07/23 04:04:14;;;;;;;;;;;15.10;99.90;;;;;;8388625;28;19933;-68
2022/07/23 04:08:16;;;;;;;;;;;15.10;99.90;;;;;;8419664;28;19932;-68
2022/07/23 04:12:18;;;;;;;;;;;15.10;99.90;;;;;;8392498;28;19924;-68
2022/07/23 04:16:19;;;;;;;;;;;15.10;99.90;;;;;;8393547;28;20018;-68
2022/07/23 04:20:21;;;;;;;;;;;15.10;99.90;;;;;;8388651;28;19960;-68
2022/07/23 04:24:23;;;;;;;;;;;15.10;99.90;;;;;;8370734;28;20331;-68
2022/07/23 04:28:25;;;;;;;;;;;15.10;99.90;;;;;;8394293;28;19931;-68
2022/07/23 04:32:26;;;;;;;;;;;15.10;99.90;;;;;;8372242;28;19928;-68
2022/07/23 04:36:28;;;;;;;;;;;15.10;99.90;;;;;;8376679;28;19927;-68
2022/07/23 04:45:33;;;;;;;;;;;15.10;99.90;;;;;;8386700;28;19938;-68
2022/07/23 04:49:35;;;;;;;;;;;15.20;99.90;;;;;;8386499;28;19939;-68
2022/07/23 05:03:44;;;;;;;;;;;15.40;99.90;;;;;;8387053;28;20462;-68
2022/07/23 05:07:46;;;;;;;;;;;15.50;99.90;;;;;;8381448;28;19920;-68
2022/07/23 05:11:48;;;;;;;;;;;15.50;99.90;;;;;;8382493;28;19924;-68
2022/07/23 05:15:49;;;;;;;;;;;15.50;99.90;;;;;;8384940;28;20370;-68
2022/07/23 05:19:51;;;;;;;;;;;15.60;99.90;;;;;;8385240;28;20011;-68
2022/07/23 05:23:59;;;;;;;;;;;15.60;99.90;;;;;;8383248;28;19929;-68
2022/07/23 05:28:00;;;;;;;;;;;15.70;99.90;;;;;;8386321;28;20264;-68
2022/07/23 05:32:02;;;;;;;;;;;15.80;99.90;;;;;;8389078;28;19924;-68
2022/07/23 05:36:04;;;;;;;;;;;15.90;99.90;;;;;;8382615;28;19920;-68
2022/07/23 05:40:07;;;;;;;;;;;16.00;99.90;;;;;;8383326;28;20409;-68
2022/07/23 05:44:09;;;;;;;;;;;16.10;99.90;;;;;;8387113;28;19943;-68
2022/07/23 05:48:10;;;;;;;;;;;16.20;99.90;;;;;;8395065;28;19920;-68
2022/07/23 05:52:12;;;;;;;;;;;16.30;99.90;;;;;;8357046;28;20287;-68
2022/07/23 05:56:14;;;;;;;;;;;16.40;99.90;;;;;;8353286;28;19924;-69
2022/07/23 06:00:15;;;;;;;;;;;16.50;99.90;;;;;;8351605;28;19932;-68
2022/07/23 06:04:17;;;;;;;;;;;16.60;99.90;;;;;;8353263;28;19920;-68
2022/07/23 06:08:19;;;;;;;;;;;16.70;99.90;;;;;;8352863;28;19932;-68
2022/07/23 06:12:20;;;;;;;;;;;16.80;99.90;;;;;;8350523;28;19925;-67
2022/07/23 06:16:22;;;;;;;;;;;16.90;99.90;;;;;;8351436;28;19933;-67
2022/07/23 06:30:37;;;;;;;;;;;17.30;99.90;;;;;;8351136;28;19924;-67
2022/07/23 06:34:39;;;;;;;;;;;17.40;99.90;;;;;;8351834;28;20540;-67
2022/07/23 06:38:44;;;;;;;;;;;17.40;99.90;;;;;;8352005;28;19921;-68
2022/07/23 06:42:46;;;;;;;;;;;17.60;99.90;;;;;;8350213;28;19932;-67
2022/07/23 06:46:47;;;;;;;;;;;17.60;99.90;;;;;;8351376;28;19932;-68
2022/07/23 06:50:49;;;;;;;;;;;17.60;99.90;;;;;;8352641;28;19932;-68
2022/07/23 06:54:51;;;;;;;;;;;17.70;99.90;;;;;;8350255;28;19928;-67
2022/07/23 06:58:52;;;;;;;;;;;17.80;99.90;;;;;;8351425;28;19920;-68
2022/07/23 07:02:55;;;;;;;;;;;17.90;99.90;;;;;;8366854;28;20237;-68
2022/07/23 07:06:56;;;;;;;;;;;17.90;99.90;;;;;;8352123;28;19928;-68
2022/07/23 07:10:58;;;;;;;;;;;18.00;99.90;;;;;;8350755;28;20387;-68
2022/07/23 07:15:00;;;;;;;;;;;18.10;99.90;;;;;;8356934;28;19928;-68
2022/07/23 07:19:01;;;;;;;;;;;18.20;99.90;;;;;;8356598;28;19928;-68
2022/07/23 07:23:04;;;;;;;;;;;18.40;99.90;;;;;;8356078;28;20285;-68
2022/07/23 07:27:05;;;;;;;;;;;18.40;99.90;;;;;;8357528;28;20287;-68
2022/07/23 07:31:07;;;;;;;;;;;18.50;99.90;;;;;;8357478;28;19925;-68
2022/07/23 07:35:09;;;;;;;;;;;18.50;99.90;;;;;;8356199;28;19980;-68
2022/07/23 07:39:10;;;;;;;;;;;18.60;99.90;;;;;;8353842;28;19951;-67
2022/07/23 07:43:12;;;;;;;;;;;18.70;99.90;;;;;;8355322;28;20410;-68
2022/07/23 07:47:15;;;;;;;;;;;18.80;99.90;;;;;;8356347;28;20364;-68
2022/07/23 07:51:16;;;;;;;;;;;18.90;99.90;;;;;;8353657;28;19932;-68
2022/07/23 07:55:18;;;;;;;;;;;19.00;99.90;;;;;;8352534;28;19924;-67
2022/07/23 07:59:20;;;;;;;;;;;19.10;99.90;;;;;;8353056;28;19929;-68
2022/07/23 08:03:21;;;;;;;;;;;19.10;99.90;;;;;;8356004;28;19931;-67
2022/07/23 08:07:23;;;;;;;;;;;19.10;99.90;;;;;;8357619;28;20376;-68
2022/07/23 08:11:25;;;;;;;;;;;19.20;99.90;;;;;;8353868;28;19920;-67
2022/07/23 08:15:27;;;;;;;;;;;19.20;99.90;;;;;;8355044;28;20388;-68
2022/07/23 08:19:29;;;;;;;;;;;19.20;99.90;;;;;;8355259;28;19924;-68
2022/07/23 08:23:31;;;;;;;;;;;19.20;99.90;;;;;;8351791;28;19925;-68
2022/07/23 08:27:33;;;;;;;;;;;19.20;99.90;;;;;;8355512;28;20265;-68
2022/07/23 08:31:34;;;;;;;;;;;19.20;99.90;;;;;;8355151;28;20384;-68
2022/07/23 08:35:46;;;;;;;;;;;19.30;99.90;;;;;;8369641;28;20280;-68
2022/07/23 08:39:48;;;;;;;;;;;19.40;99.90;;;;;;8352988;28;19936;-68
2022/07/23 08:43:50;;;;;;;;;;;19.50;99.90;;;;;;8354067;28;20364;-68
2022/07/23 08:52:56;;;;;;;;;;;19.60;99.90;;;;;;8357201;28;19936;-67
2022/07/23 09:17:14;;;;;;;;;;;19.90;99.90;;;;;;8353183;28;19966;-67
2022/07/23 09:21:24;;;;;;;;;;;19.80;99.90;;;;;;8352060;28;19967;-68
2022/07/23 09:25:25;;;;;;;;;;;19.80;99.90;;;;;;8351970;28;19931;-67
2022/07/23 09:29:27;;;;;;;;;;;19.90;99.90;;;;;;8354219;28;20249;-68
2022/07/23 09:33:29;;;;;;;;;;;19.90;99.90;;;;;;8357984;28;19928;-68
2022/07/23 09:37:31;;;;;;;;;;;20.00;99.90;;;;;;8350669;28;19937;-68
2022/07/23 09:41:40;;;;;;;;;;;20.10;99.90;;;;;;8354029;28;20327;-67
2022/07/23 09:45:42;;;;;;;;;;;20.20;99.90;;;;;;8353895;28;19928;-68
2022/07/23 09:49:57;;;;;;;;;;;20.30;99.90;;;;;;8351103;28;19925;-68
2022/07/23 09:53:59;;;;;;;;;;;20.30;99.90;;;;;;8351155;28;19939;-68
2022/07/23 09:58:01;;;;;;;;;;;20.40;99.90;;;;;;8368088;28;19968;-67
2022/07/23 10:02:05;;;;;;;;;;;20.40;99.90;;;;;;8352235;28;20375;-68
2022/07/23 10:06:08;;;;;;;;;;;20.40;99.90;;;;;;8336572;28;20433;-68
2022/07/23 10:10:09;;;;;;;;;;;20.50;99.90;;;;;;8355413;28;19929;-68
2022/07/23 10:14:11;;;;;;;;;;;20.50;99.90;;;;;;8351755;28;19921;-68
2022/07/23 10:18:13;;;;;;;;;;;20.60;99.90;;;;;;8351921;28;20284;-68
2022/07/23 10:22:19;;;;;;;;;;;20.70;99.90;;;;;;8351045;28;19921;-68
2022/07/23 10:26:27;;;;;;;;;;;20.70;99.90;;;;;;8353586;28;19921;-68
2022/07/23 10:40:35;;;;;;;;;;;20.90;99.90;;;;;;8350640;28;19943;-67
2022/07/23 10:44:47;;;;;;;;;;;21.00;99.90;;;;;;8350507;28;19931;-67
2022/07/23 10:49:08;;;;;;;;;;;21.00;99.90;;;;;;8355549;28;19933;-68
2022/07/23 10:53:17;;;;;;;;;;;21.10;99.90;;;;;;8356626;28;19924;-68
2022/07/23 10:57:21;;;;;;;;;;;21.20;99.90;;;;;;8358115;28;19924;-68
2022/07/23 11:01:34;;;;;;;;;;;21.20;99.90;;;;;;8356808;28;19972;-67
2022/07/23 11:05:42;;;;;;;;;;;21.30;99.90;;;;;;8342560;28;19928;-68
2022/07/23 11:09:45;;;;;;;;;;;21.30;99.90;;;;;;8355847;28;20383;-67
2022/07/23 11:13:48;;;;;;;;;;;21.40;99.90;;;;;;8356794;28;19920;-68
2022/07/23 11:17:59;;;;;;;;;;;21.50;99.90;;;;;;8340457;28;19928;-67
2022/07/23 11:22:01;;;;;;;;;;;21.50;99.90;;;;;;8357552;28;19979;-68
2022/07/23 11:26:04;;;;;;;;;;;21.60;99.90;;;;;;8374045;28;19928;-68
2022/07/23 11:30:10;;;;;;;;;;;21.70;99.90;;;;;;8355087;28;19924;-67
2022/07/23 11:34:34;;;;;;;;;;;21.80;99.90;;;;;;8355820;28;19924;-68
2022/07/23 11:38:37;;;;;;;;;;;21.80;99.90;;;;;;8358614;28;20553;-68
2022/07/23 11:42:40;;;;;;;;;;;22.00;99.90;;;;;;8355095;28;20370;-68
2022/07/23 11:46:53;;;;;;;;;;;22.10;99.90;;;;;;8356181;28;19940;-68
2022/07/23 11:50:56;;;;;;;;;;;22.20;99.90;;;;;;8355581;28;19928;-68
2022/07/23 11:54:59;;;;;;;;;;;22.20;99.90;;;;;;8355978;28;20257;-68
2022/07/23 11:59:01;;;;;;;;;;;22.30;99.90;;;;;;8355865;28;19926;-68
2022/07/23 12:03:03;;;;;;;;;;;22.30;99.90;;;;;;8355000;28;20268;-68
2022/07/23 12:07:21;;;;;;;;;;;22.40;99.90;;;;;;8356400;28;19921;-68
2022/07/23 12:11:23;;;;;;;;;;;22.50;99.90;;;;;;8355803;28;19935;-68
2022/07/23 12:15:29;;;;;;;;;;;22.50;99.90;;;;;;8353807;28;19921;-67
2022/07/23 12:19:30;;;;;;;;;;;22.60;99.90;;;;;;8354433;28;19920;-68
2022/07/23 12:23:32;;;;;;;;;;;22.60;99.90;;;;;;8371789;28;19931;-68
2022/07/23 12:27:34;;;;;;;;;;;22.60;99.90;;;;;;8354973;28;19921;-68
2022/07/23 12:31:37;;;;;;;;;;;22.60;99.90;;;;;;8372230;28;19920;-68
2022/07/23 12:35:41;;;;;;;;;;;22.60;99.90;;;;;;8354036;28;19924;-68
2022/07/23 12:45:06;;;;;;;;;;;22.80;99.90;;;;;;8354096;28;19999;-68
2022/07/23 12:49:08;;;;;;;;;;;22.80;99.90;;;;;;8354838;28;19920;-67
2022/07/23 12:58:17;;;;;;;;;;;22.90;99.90;;;;;;8356100;28;20010;-68
2022/07/23 13:02:19;;;;;;;;;;;23.00;99.90;;;;;;8354205;28;19925;-68
2022/07/23 13:06:22;;;;;;;;;;;23.00;99.90;;;;;;8354233;28;19924;-68
2022/07/23 13:10:24;;;;;;;;;;;23.10;99.90;;;;;;8353445;28;19920;-68
2022/07/23 13:14:26;;;;;;;;;;;23.20;99.90;;;;;;8352856;28;20340;-68
2022/07/23 13:18:28;;;;;;;;;;;23.30;99.90;;;;;;8354472;28;20378;-68
2022/07/23 13:22:29;;;;;;;;;;;23.30;99.90;;;;;;8353629;28;19924;-68
2022/07/23 13:26:31;;;;;;;;;;;23.40;99.90;;;;;;8352418;28;19920;-68
2022/07/23 13:30:33;;;;;;;;;;;23.40;99.90;;;;;;8334846;28;19929;-68
2022/07/23 13:34:35;;;;;;;;;;;23.40;99.90;;;;;;8351583;28;19924;-68
2022/07/23 13:38:37;;;;;;;;;;;23.50;99.90;;;;;;8368647;28;19924;-68
2022/07/23 13:42:38;;;;;;;;;;;23.50;99.90;;;;;;8352067;28;19920;-68
2022/07/23 13:46:40;;;;;;;;;;;23.60;99.90;;;;;;8353145;28;19924;-68
2022/07/23 13:55:46;;;;;;;;;;;23.70;99.90;;;;;;8351541;28;19916;-68
2022/07/23 13:59:49;;;;;;;;;;;23.80;99.90;;;;;;8352792;28;20007;-68
2022/07/23 14:03:53;;;;;;;;;;;23.80;99.90;;;;;;8352101;28;26099;-68
2022/07/23 14:07:54;;;;;;;;;;;23.80;99.90;;;;;;8352624;28;20429;-68
2022/07/23 14:11:56;;;;;;;;;;;23.80;99.90;;;;;;8352870;28;19979;-68
2022/07/23 14:15:58;;;;;;;;;;;23.80;99.90;;;;;;8351891;28;19943;-68
2022/07/23 14:19:59;;;;;;;;;;;23.90;99.90;;;;;;8350733;28;19935;-68
2022/07/23 14:29:05;;;;;;;;;;;24.10;99.90;;;;;;8359647;28;19955;-68
2022/07/23 14:33:07;;;;;;;;;;;24.20;99.90;;;;;;8372618;28;19924;-68
2022/07/23 14:37:10;;;;;;;;;;;24.40;99.90;;;;;;8357714;28;20313;-68
2022/07/23 14:41:11;;;;;;;;;;;24.50;99.90;;;;;;8357875;28;19920;-68
2022/07/23 14:45:13;;;;;;;;;;;24.70;99.90;;;;;;8372967;28;19928;-68
2022/07/23 14:49:15;;;;;;;;;;;24.80;99.90;;;;;;8357179;28;19925;-68
2022/07/23 14:53:16;;;;;;;;;;;24.80;99.90;;;;;;8357671;28;19920;-68
2022/07/23 14:57:23;;;;;;;;;;;24.90;99.90;;;;;;8358252;28;20273;-68
2022/07/23 15:01:27;;;;;;;;;;;25.10;99.90;;;;;;8357555;28;19967;-68
2022/07/23 15:05:30;;;;;;;;;;;25.20;99.90;;;;;;8357156;28;19992;-68
2022/07/23 15:09:31;;;;;;;;;;;25.20;99.90;;;;;;8355890;28;20340;-68
2022/07/23 15:13:33;;;;;;;;;;;25.10;99.90;;;;;;8355246;28;24144;-68
2022/07/23 15:17:35;;;;;;;;;;;25.00;99.90;;;;;;8359704;28;20582;-68
2022/07/23 15:21:36;;;;;;;;;;;25.00;99.90;;;;;;8358086;28;19966;-68
2022/07/23 15:25:38;;;;;;;;;;;25.10;99.90;;;;;;8356229;28;19928;-68
2022/07/23 15:29:40;;;;;;;;;;;25.10;99.90;;;;;;8354126;28;19920;-68
2022/07/23 15:33:41;;;;;;;;;;;25.00;99.90;;;;;;8370113;28;19928;-68
2022/07/23 15:37:43;;;;;;;;;;;24.90;99.90;;;;;;8356845;28;19999;-68
2022/07/23 15:41:45;;;;;;;;;;;25.00;99.90;;;;;;8355805;28;20338;-68
2022/07/23 15:45:47;;;;;;;;;;;25.00;99.90;;;;;;8354797;28;19920;-68
2022/07/23 15:49:49;;;;;;;;;;;25.00;99.90;;;;;;8355555;28;20299;-68
2022/07/23 15:53:51;;;;;;;;;;;25.00;99.90;;;;;;8354164;28;19921;-68
2022/07/23 15:57:52;;;;;;;;;;;25.00;99.90;;;;;;8356016;28;19920;-68
2022/07/23 16:01:54;;;;;;;;;;;25.10;99.90;;;;;;8354807;28;20506;-68
2022/07/23 16:05:56;;;;;;;;;;;25.10;99.90;;;;;;8358081;28;24080;-68
2022/07/23 16:09:57;;;;;;;;;;;25.50;99.90;;;;;;8355664;28;19924;-68
2022/07/23 16:13:59;;;;;;;;;;;25.90;99.90;;;;;;8357305;28;19931;-68
2022/07/23 16:18:01;;;;;;;;;;;26.30;99.90;;;;;;8355343;28;19928;-68
2022/07/23 16:22:03;;;;;;;3.30;1.70;;;26.50;99.90;;;;;;8353106;28;19929;-68
2022/07/23 16:26:05;;;;;;;5.35;1.85;;;26.80;99.90;;;;;;8355082;28;20515;-68
2022/07/23 16:30:09;;;;;;;3.70;1.95;;;27.20;99.90;;;;;;8353768;28;20064;-68
2022/07/23 16:34:11;;;;;;;3.40;1.73;;;27.50;99.90;;;;;;8353025;28;20041;-68
2022/07/23 16:38:12;;;;;;;3.78;1.80;;;27.80;99.90;;;;;;8353866;28;20079;-68
2022/07/23 16:42:14;;;;;;;3.47;1.67;;;28.10;99.90;;;;;;8353722;28;20045;-68
2022/07/23 16:46:16;;;;;;;3.65;1.67;;;28.20;99.90;;;;;;8355418;28;20083;-68
2022/07/23 16:50:18;;;;;;;2.78;1.48;;;28.10;99.90;;;;;;8352181;28;20055;-68
2022/07/23 16:54:20;;;;;;;4.30;1.75;;;28.00;99.90;;;;;;8354928;28;20041;-68
2022/07/23 16:58:22;;;;;;;2.88;1.45;;;28.10;99.90;;;;;;8353632;28;20094;-68
2022/07/23 17:02:24;;;;;;;3.70;1.40;;;28.20;99.90;;;;;;8353635;28;20045;-68
2022/07/23 17:06:25;;;;;;;3.80;1.90;;;28.20;99.90;;;;;;8353879;28;20060;-68
2022/07/23 17:10:27;;;;;;;3.33;1.60;;;28.20;99.90;;;;;;8352809;28;20037;-68
2022/07/23 17:14:29;;;;;;;2.60;1.40;;;28.20;99.90;;;;;;8350915;28;20107;-68
2022/07/23 17:18:31;;;;;;;4.47;1.60;;;27.90;99.90;;;;;;8352331;28;20063;-68
2022/07/23 17:22:33;;;;;;;3.25;1.50;;;27.50;99.90;;;;;;8352628;28;20053;-68
2022/07/23 17:26:35;;;;;;;3.85;1.50;;;27.20;99.90;;;;;;8354321;28;20045;-68
2022/07/23 17:30:38;;;;;;;4.25;1.80;;;26.90;99.90;;;;;;8352156;28;20045;-68
2022/07/23 17:34:40;;;;;;;2.88;1.60;;;26.70;99.90;;;;;;8354075;28;20053;-68
2022/07/23 17:38:42;;;;;;;3.45;1.80;;;26.60;99.90;;;;;;8353381;28;20056;-68
2022/07/23 17:58:51;;;;;;;3.13;1.42;;;26.10;99.90;;;;;;8350607;28;20039;-68
2022/07/23 18:02:54;;;;;;;3.10;1.50;;;26.00;99.90;;;;;;8351941;28;20508;-68
2022/07/23 18:06:55;;;;;;;2.88;1.40;;;25.90;99.90;;;;;;8353615;28;20040;-67
2022/07/23 18:10:57;;;;;;;4.00;1.50;;;25.90;99.90;;;;;;8350329;28;20045;-68
2022/07/23 18:14:59;;;;;;;3.30;1.40;;;25.90;99.90;;;;;;8349657;28;20072;-68
2022/07/23 18:19:07;;;;;;;5.07;1.80;;;25.80;99.90;;;;;;8333770;28;20454;-68
2022/07/23 18:23:09;;;;;;;3.50;1.60;;;25.80;99.90;;;;;;8351109;28;20519;-68
2022/07/23 18:27:11;;;;;;;2.90;1.40;;;25.70;99.90;;;;;;8354072;28;20048;-68
2022/07/23 18:31:13;;;;;;;3.40;1.55;;;25.70;99.90;;;;;;8350365;28;20036;-68
2022/07/23 18:35:17;;;;;;;2.90;1.50;;;25.60;99.90;;;;;;8349526;28;20100;-68
2022/07/23 18:39:18;;;;;;;3.00;1.48;;;25.60;99.90;;;;;;8350046;28;20056;-68
2022/07/23 18:43:20;;;;;;;2.72;1.30;;;25.50;99.90;;;;;;8352679;28;20049;-68
2022/07/23 18:47:22;;;;;;;2.90;1.55;;;25.50;99.90;;;;;;8351148;28;20503;-68
2022/07/23 18:51:25;;;;;;;3.58;1.40;;;25.30;99.90;;;;;;8350041;28;20041;-68
2022/07/23 18:55:27;;;;;;;3.20;1.50;;;25.20;99.90;;;;;;8366769;28;20049;-68
2022/07/23 18:59:29;;;;;;;3.85;1.40;;;25.10;99.90;;;;;;8349854;28;20056;-68
2022/07/23 19:03:31;;;;;;;3.00;1.38;;;24.90;99.90;;;;;;8351408;28;20403;-68
2022/07/23 19:07:32;;;;;;;2.90;1.40;;;24.80;99.90;;;;;;8353841;28;20045;-68
2022/07/23 19:11:34;;;;;;;;;;;24.70;99.90;;;;;;8357061;28;20503;-68
2022/07/23 19:15:36;;;;;;;;;;;24.60;99.90;;;;;;8354044;28;20296;-68
2022/07/23 19:19:37;;;;;;;;;;;24.40;99.90;;;;;;8356663;28;19947;-68
2022/07/23 19:23:39;;;;;;;;;;;24.30;99.90;;;;;;8355378;28;19929;-68
2022/07/23 19:27:41;;;;;;;;;;;24.20;99.90;;;;;;8356691;28;19940;-68
2022/07/23 19:31:42;;;;;;;;;;;24.00;99.90;;;;;;8340123;28;19924;-68
2022/07/23 19:35:46;;;;;;;;;;;23.90;99.90;;;;;;8355807;28;19967;-68
2022/07/23 19:39:48;;;;;;;;;;;23.80;99.90;;;;;;8358378;28;19925;-68
2022/07/23 19:43:50;;;;;;;;;;;23.70;99.90;;;;;;8355307;28;19920;-68
2022/07/23 19:47:51;;;;;;;;;;;23.50;99.90;;;;;;8373931;28;19928;-68
2022/07/23 19:51:56;;;;;;;;;;;23.40;99.90;;;;;;8355637;28;20364;-68
2022/07/23 20:01:01;;;;;;;;;;;23.20;99.90;;;;;;8354792;28;19915;-68
2022/07/23 20:05:03;;;;;;;;;;;23.00;99.90;;;;;;8356075;28;19920;-68
2022/07/23 20:09:05;;;;;;;;;;;22.90;99.90;;;;;;8354438;28;19920;-68
2022/07/23 20:13:07;;;;;;;;;;;22.80;99.90;;;;;;8354960;28;19958;-68
2022/07/23 20:17:09;;;;;;;;;;;22.80;99.90;;;;;;8355055;28;20623;-68
2022/07/23 20:21:10;;;;;;;;;;;22.70;99.90;;;;;;8353674;28;20382;-68
2022/07/23 20:25:12;;;;;;;;;;;22.60;99.90;;;;;;8355034;28;19925;-68
2022/07/23 20:29:14;;;;;;;;;;;22.50;99.90;;;;;;8369858;28;19921;-68
2022/07/23 20:33:17;;;;;;;;;;;22.50;99.90;;;;;;8355268;28;19920;-68
2022/07/23 20:37:19;;;;;;;;;;;22.40;99.90;;;;;;8354808;28;20108;-68
2022/07/23 20:41:20;;;;;;;;;;;22.30;99.90;;;;;;8354244;28;20012;-68
2022/07/23 20:45:22;;;;;;;;;;;22.30;99.90;;;;;;8353758;28;19928;-68
2022/07/23 20:49:24;;;;;;;;;;;22.20;99.90;;;;;;8368887;28;19924;-68
2022/07/23 20:53:25;;;;;;;;;;;22.20;99.90;;;;;;8355695;28;20003;-68
2022/07/23 20:57:28;;;;;;;;;;;22.10;99.90;;;;;;8353407;28;20383;-68
2022/07/23 21:01:30;;;;;;;;;;;22.00;99.90;;;;;;8358408;28;19931;-68
2022/07/23 21:05:32;;;;;;;;;;;21.90;99.90;;;;;;8386071;28;20377;-68
2022/07/23 21:09:33;;;;;;;;;;;21.90;99.90;;;;;;8386436;28;19928;-68
2022/07/23 21:13:35;;;;;;;;;;;21.80;99.90;;;;;;8391799;28;19939;-68
2022/07/23 21:17:36;;;;;;;;;;;21.70;99.90;;;;;;8391745;28;19928;-68
2022/07/23 21:21:45;;;;;;;3.60;1.58;;;21.60;99.90;;;;;;8358573;28;19927;-68
2022/07/23 21:25:48;;;;;;;4.22;1.60;;;21.60;99.90;;;;;;8389983;28;20419;-68
2022/07/23 21:30:11;;;;;;;3.78;1.70;;;21.50;99.90;;;;;;8391321;28;20099;-68
2022/07/23 21:34:13;;;;;;;3.50;1.83;;;21.40;99.90;;;;;;8381244;28;20074;-68
2022/07/23 21:38:15;;;;;;;4.45;1.80;;;21.40;99.90;;;;;;8374301;28;20049;-68
2022/07/23 21:42:16;;;;;;;;;;;21.30;99.90;;;;;;8387664;28;20048;-68
2022/07/23 21:46:22;;;;;;;;;;;21.20;99.90;;;;;;8407294;28;19928;-68
2022/07/23 21:50:24;;;;;;;2.93;1.63;;;21.20;99.90;;;;;;8387613;28;19927;-68
2022/07/23 21:54:26;;;;;;;3.85;1.80;;;21.10;99.90;;;;;;8388361;28;20381;-68
2022/07/23 21:58:28;;;;;;;3.75;1.50;;;21.00;99.90;;;;;;8391009;28;20047;-68
2022/07/23 22:02:29;;;;;;;3.75;1.85;;;20.90;99.90;;;;;;8368694;28;20056;-68
2022/07/23 22:06:31;;;;;;;3.65;1.80;;;20.90;99.90;;;;;;8376450;28;20056;-68
2022/07/23 22:10:33;;;;;;;3.10;1.55;;;20.80;99.90;;;;;;8383586;28;19924;-68
2022/07/23 22:14:35;;;;;;;3.45;1.75;;;20.80;99.90;;;;;;8379457;28;20488;-68
2022/07/23 22:18:37;;;;;;;3.90;1.77;;;20.70;99.90;;;;;;8385214;28;20040;-68
2022/07/23 22:22:44;;;;;;;3.67;1.60;;;20.70;99.90;;;;;;8384478;28;20045;-68
2022/07/23 22:26:46;;;;;;;3.35;1.67;;;20.60;99.90;;;;;;8384535;28;20048;-68
2022/07/23 22:30:49;;;;;;;3.28;1.63;;;20.60;99.90;;;;;;8383844;28;20045;-68
2022/07/23 22:34:51;;;;;;;;;;;20.50;99.90;;;;;;8388751;28;20044;-68
2022/07/23 22:38:52;;;;;;;;;;;20.40;99.90;;;;;;8373550;28;20330;-68
2022/07/23 22:42:54;;;;;;;;;;;20.40;99.90;;;;;;8390916;28;20306;-68
2022/07/23 22:46:56;;;;;;;3.55;1.80;;;20.30;99.90;;;;;;8387034;28;19921;-68
2022/07/23 22:50:57;;;;;;;;;;;20.30;99.90;;;;;;8390857;28;19924;-68
2022/07/23 22:54:59;;;;;;;;;;;20.20;99.90;;;;;;8391177;28;19931;-68
2022/07/23 22:59:01;;;;;;;;;;;20.20;99.90;;;;;;8377122;28;19928;-68
2022/07/23 23:03:22;;;;;;;;;;;20.20;99.90;;;;;;8388266;28;20459;-68
2022/07/23 23:07:24;;;;;;;;;;;20.10;99.90;;;;;;8396119;28;20033;-68
2022/07/23 23:11:26;;;;;;;;;;;20.10;99.90;;;;;;8397027;28;19927;-68
2022/07/23 23:15:27;;;;;;;;;;;20.00;99.90;;;;;;8390070;28;19924;-68
2022/07/23 23:19:29;;;;;;;;;;;20.00;99.90;;;;;;8386355;28;20015;-68
2022/07/23 23:23:31;;;;;;;;;;;20.00;99.90;;;;;;8391582;28;20367;-68
2022/07/23 23:27:33;;;;;;;;;;;19.90;99.90;;;;;;8385692;28;19974;-68
2022/07/23 23:31:35;;;;;;;;;;;19.90;99.90;;;;;;8386558;28;19991;-68
2022/07/23 23:35:36;;;;;;;;;;;19.80;99.90;;;;;;8382038;28;19921;-68
2022/07/23 23:39:38;;;;;;;;;;;19.80;99.90;;;;;;8386410;28;19927;-68
2022/07/23 23:43:40;;;;;;;;;;;19.80;99.90;;;;;;8389763;28;19939;-68
2022/07/23 23:47:41;;;;;;;;;;;19.70;99.90;;;;;;8390811;28;20364;-68
2022/07/23 23:51:43;;;;;;;;;;;19.70;99.90;;;;;;8383557;28;20380;-68
2022/07/23 23:55:45;;;;;;;;;;;19.60;99.90;;;;;;8384808;28;19920;-68
